sensor_id;sensor_type;location;lat;lon;timestamp;P1;durP1;ratioP1;P2;durP2;ratioP2
40284;SDS011;25997;50.214;19.354;2023-10-31T00:00:02;4.78;;;2.92;;
40284;SDS011;25997;50.214;19.354;2023-10-31T00:03:05;7.00;;;3.47;;
40284;SDS011;25997;50.214;19.354;2023-10-31T00:06:09;8.65;;;3.25;;
40284;SDS011;25997;50.214;19.354;2023-10-31T00:09:11;6.68;;;3.10;;
40284;SDS011;25997;50.214;19.354;2023-10-31T00:12:14;6.07;;;2.47;;
40284;SDS011;25997;50.214;19.354;2023-10-31T00:15:16;5.05;;;2.72;;
40284;SDS011;25997;50.214;19.354;2023-10-31T00:18:19;6.18;;;2.85;;
40284;SDS011;25997;50.214;19.354;2023-10-31T00:21:23;5.78;;;3.45;;
40284;SDS011;25997;50.214;19.354;2023-10-31T00:24:25;4.57;;;2.55;;
40284;SDS011;25997;50.214;19.354;2023-10-31T00:27:28;3.70;;;2.67;;
40284;SDS011;25997;50.214;19.354;2023-10-31T00:30:30;8.90;;;4.13;;
40284;SDS011;25997;50.214;19.354;2023-10-31T00:33:33;4.85;;;3.15;;
40284;SDS011;25997;50.214;19.354;2023-10-31T00:36:37;4.47;;;2.72;;
40284;SDS011;25997;50.214;19.354;2023-10-31T00:39:40;5.40;;;3.17;;
40284;SDS011;25997;50.214;19.354;2023-10-31T00:42:42;4.75;;;3.50;;
40284;SDS011;25997;50.214;19.354;2023-10-31T00:45:48;7.55;;;4.10;;
40284;SDS011;25997;50.214;19.354;2023-10-31T00:48:51;6.13;;;4.20;;
40284;SDS011;25997;50.214;19.354;2023-10-31T00:51:55;6.32;;;3.80;;
40284;SDS011;25997;50.214;19.354;2023-10-31T00:54:57;7.00;;;3.63;;
40284;SDS011;25997;50.214;19.354;2023-10-31T00:58:00;6.05;;;4.13;;
40284;SDS011;25997;50.214;19.354;2023-10-31T01:01:02;5.63;;;3.78;;
40284;SDS011;25997;50.214;19.354;2023-10-31T01:04:05;8.40;;;3.72;;
40284;SDS011;25997;50.214;19.354;2023-10-31T01:07:09;9.20;;;3.80;;
40284;SDS011;25997;50.214;19.354;2023-10-31T01:10:12;6.90;;;4.28;;
40284;SDS011;25997;50.214;19.354;2023-10-31T01:13:15;5.03;;;2.92;;
40284;SDS011;25997;50.214;19.354;2023-10-31T01:16:17;7.43;;;3.05;;
40284;SDS011;25997;50.214;19.354;2023-10-31T01:19:21;5.25;;;3.13;;
40284;SDS011;25997;50.214;19.354;2023-10-31T01:22:25;6.32;;;3.20;;
40284;SDS011;25997;50.214;19.354;2023-10-31T01:25:27;5.70;;;3.47;;
40284;SDS011;25997;50.214;19.354;2023-10-31T01:28:30;4.63;;;2.97;;
40284;SDS011;25997;50.214;19.354;2023-10-31T01:31:32;8.38;;;3.40;;
40284;SDS011;25997;50.214;19.354;2023-10-31T01:34:37;4.50;;;3.22;;
40284;SDS011;25997;50.214;19.354;2023-10-31T01:37:41;7.35;;;4.00;;
40284;SDS011;25997;50.214;19.354;2023-10-31T01:40:43;5.60;;;2.97;;
40284;SDS011;25997;50.214;19.354;2023-10-31T01:43:46;5.80;;;2.83;;
40284;SDS011;25997;50.214;19.354;2023-10-31T01:46:49;4.93;;;2.65;;
40284;SDS011;25997;50.214;19.354;2023-10-31T01:49:51;6.60;;;3.10;;
40284;SDS011;25997;50.214;19.354;2023-10-31T01:52:55;7.40;;;3.58;;
40284;SDS011;25997;50.214;19.354;2023-10-31T01:55:58;4.13;;;2.90;;
40284;SDS011;25997;50.214;19.354;2023-10-31T01:59:04;6.35;;;3.35;;
40284;SDS011;25997;50.214;19.354;2023-10-31T02:02:07;3.38;;;2.35;;
40284;SDS011;25997;50.214;19.354;2023-10-31T02:05:09;6.03;;;3.03;;
40284;SDS011;25997;50.214;19.354;2023-10-31T02:08:13;5.05;;;2.83;;
40284;SDS011;25997;50.214;19.354;2023-10-31T02:11:16;4.95;;;2.70;;
40284;SDS011;25997;50.214;19.354;2023-10-31T02:14:18;7.15;;;2.58;;
40284;SDS011;25997;50.214;19.354;2023-10-31T02:17:24;7.95;;;2.78;;
40284;SDS011;25997;50.214;19.354;2023-10-31T02:20:26;4.70;;;2.55;;
40284;SDS011;25997;50.214;19.354;2023-10-31T02:23:30;3.20;;;2.15;;
40284;SDS011;25997;50.214;19.354;2023-10-31T02:26:33;5.18;;;2.53;;
40284;SDS011;25997;50.214;19.354;2023-10-31T02:29:36;4.60;;;2.78;;
40284;SDS011;25997;50.214;19.354;2023-10-31T02:32:40;6.85;;;2.78;;
40284;SDS011;25997;50.214;19.354;2023-10-31T02:35:43;5.13;;;2.20;;
40284;SDS011;25997;50.214;19.354;2023-10-31T02:38:47;5.60;;;2.33;;
40284;SDS011;25997;50.214;19.354;2023-10-31T02:41:49;4.25;;;2.35;;
40284;SDS011;25997;50.214;19.354;2023-10-31T02:44:52;3.38;;;1.90;;
40284;SDS011;25997;50.214;19.354;2023-10-31T02:47:54;3.30;;;2.10;;
40284;SDS011;25997;50.214;19.354;2023-10-31T02:50:57;4.75;;;2.30;;
40284;SDS011;25997;50.214;19.354;2023-10-31T02:54:02;9.25;;;2.28;;
40284;SDS011;25997;50.214;19.354;2023-10-31T02:57:04;4.00;;;2.40;;
40284;SDS011;25997;50.214;19.354;2023-10-31T03:00:07;4.43;;;2.60;;
40284;SDS011;25997;50.214;19.354;2023-10-31T03:03:10;5.60;;;3.55;;
40284;SDS011;25997;50.214;19.354;2023-10-31T03:06:12;5.38;;;3.17;;
40284;SDS011;25997;50.214;19.354;2023-10-31T03:09:16;8.40;;;3.70;;
40284;SDS011;25997;50.214;19.354;2023-10-31T03:12:19;6.75;;;3.05;;
40284;SDS011;25997;50.214;19.354;2023-10-31T03:15:21;5.28;;;3.10;;
40284;SDS011;25997;50.214;19.354;2023-10-31T03:18:24;8.50;;;3.55;;
40284;SDS011;25997;50.214;19.354;2023-10-31T03:21:26;5.43;;;2.33;;
40284;SDS011;25997;50.214;19.354;2023-10-31T03:24:30;6.30;;;2.55;;
40284;SDS011;25997;50.214;19.354;2023-10-31T03:27:33;4.47;;;2.80;;
40284;SDS011;25997;50.214;19.354;2023-10-31T03:30:36;5.82;;;2.83;;
40284;SDS011;25997;50.214;19.354;2023-10-31T03:33:39;6.82;;;2.58;;
40284;SDS011;25997;50.214;19.354;2023-10-31T03:36:42;3.08;;;2.42;;
40284;SDS011;25997;50.214;19.354;2023-10-31T03:39:45;8.52;;;3.22;;
40284;SDS011;25997;50.214;19.354;2023-10-31T03:42:48;4.07;;;2.40;;
40284;SDS011;25997;50.214;19.354;2023-10-31T03:45:51;5.28;;;2.22;;
40284;SDS011;25997;50.214;19.354;2023-10-31T03:48:53;5.43;;;2.17;;
40284;SDS011;25997;50.214;19.354;2023-10-31T03:51:56;4.78;;;2.35;;
40284;SDS011;25997;50.214;19.354;2023-10-31T03:55:00;5.93;;;2.55;;
40284;SDS011;25997;50.214;19.354;2023-10-31T03:58:03;4.22;;;2.47;;
40284;SDS011;25997;50.214;19.354;2023-10-31T04:01:06;5.20;;;2.50;;
40284;SDS011;25997;50.214;19.354;2023-10-31T04:04:08;8.13;;;2.53;;
40284;SDS011;25997;50.214;19.354;2023-10-31T04:07:11;4.10;;;2.33;;
40284;SDS011;25997;50.214;19.354;2023-10-31T04:10:15;3.58;;;2.35;;
40284;SDS011;25997;50.214;19.354;2023-10-31T04:13:18;6.40;;;3.00;;
40284;SDS011;25997;50.214;19.354;2023-10-31T04:16:20;4.50;;;2.08;;
40284;SDS011;25997;50.214;19.354;2023-10-31T04:19:23;4.43;;;3.03;;
40284;SDS011;25997;50.214;19.354;2023-10-31T04:22:26;4.53;;;2.38;;
40284;SDS011;25997;50.214;19.354;2023-10-31T04:25:30;6.45;;;2.75;;
40284;SDS011;25997;50.214;19.354;2023-10-31T04:28:32;6.13;;;2.75;;
40284;SDS011;25997;50.214;19.354;2023-10-31T04:31:34;4.20;;;2.55;;
40284;SDS011;25997;50.214;19.354;2023-10-31T04:34:37;5.20;;;2.03;;
40284;SDS011;25997;50.214;19.354;2023-10-31T04:37:40;9.57;;;2.50;;
40284;SDS011;25997;50.214;19.354;2023-10-31T04:40:44;7.45;;;2.60;;
40284;SDS011;25997;50.214;19.354;2023-10-31T04:43:46;6.43;;;2.38;;
40284;SDS011;25997;50.214;19.354;2023-10-31T04:46:49;4.55;;;2.53;;
40284;SDS011;25997;50.214;19.354;2023-10-31T04:49:51;4.60;;;2.72;;
40284;SDS011;25997;50.214;19.354;2023-10-31T04:52:53;7.18;;;2.97;;
40284;SDS011;25997;50.214;19.354;2023-10-31T04:55:57;6.28;;;2.55;;
40284;SDS011;25997;50.214;19.354;2023-10-31T04:59:00;4.32;;;2.58;;
40284;SDS011;25997;50.214;19.354;2023-10-31T05:02:02;5.28;;;3.00;;
40284;SDS011;25997;50.214;19.354;2023-10-31T05:05:05;2.95;;;2.13;;
40284;SDS011;25997;50.214;19.354;2023-10-31T05:08:07;6.10;;;2.50;;
40284;SDS011;25997;50.214;19.354;2023-10-31T05:11:11;6.07;;;3.08;;
40284;SDS011;25997;50.214;19.354;2023-10-31T05:14:14;5.40;;;3.83;;
40284;SDS011;25997;50.214;19.354;2023-10-31T05:17:16;4.78;;;2.85;;
40284;SDS011;25997;50.214;19.354;2023-10-31T05:20:18;5.10;;;2.88;;
40284;SDS011;25997;50.214;19.354;2023-10-31T05:23:21;3.75;;;2.70;;
40284;SDS011;25997;50.214;19.354;2023-10-31T05:26:25;6.93;;;2.65;;
40284;SDS011;25997;50.214;19.354;2023-10-31T05:29:28;7.10;;;3.70;;
40284;SDS011;25997;50.214;19.354;2023-10-31T05:32:31;6.13;;;3.15;;
40284;SDS011;25997;50.214;19.354;2023-10-31T05:35:33;11.57;;;4.03;;
40284;SDS011;25997;50.214;19.354;2023-10-31T05:38:36;5.15;;;3.17;;
40284;SDS011;25997;50.214;19.354;2023-10-31T05:41:40;9.18;;;3.40;;
40284;SDS011;25997;50.214;19.354;2023-10-31T05:44:42;4.13;;;2.90;;
40284;SDS011;25997;50.214;19.354;2023-10-31T05:47:45;8.52;;;3.05;;
40284;SDS011;25997;50.214;19.354;2023-10-31T05:50:48;7.80;;;2.67;;
40284;SDS011;25997;50.214;19.354;2023-10-31T05:53:50;5.57;;;2.88;;
40284;SDS011;25997;50.214;19.354;2023-10-31T05:56:54;13.93;;;6.55;;
40284;SDS011;25997;50.214;19.354;2023-10-31T05:59:56;3.45;;;2.40;;
40284;SDS011;25997;50.214;19.354;2023-10-31T06:02:59;5.03;;;2.45;;
40284;SDS011;25997;50.214;19.354;2023-10-31T06:06:02;3.70;;;2.22;;
40284;SDS011;25997;50.214;19.354;2023-10-31T06:09:05;5.13;;;2.70;;
40284;SDS011;25997;50.214;19.354;2023-10-31T06:12:11;4.95;;;3.17;;
40284;SDS011;25997;50.214;19.354;2023-10-31T06:15:13;4.32;;;2.08;;
40284;SDS011;25997;50.214;19.354;2023-10-31T06:18:16;5.90;;;3.22;;
40284;SDS011;25997;50.214;19.354;2023-10-31T06:21:18;5.82;;;2.67;;
40284;SDS011;25997;50.214;19.354;2023-10-31T06:24:20;6.22;;;2.78;;
40284;SDS011;25997;50.214;19.354;2023-10-31T06:27:24;6.30;;;2.65;;
40284;SDS011;25997;50.214;19.354;2023-10-31T06:30:27;9.30;;;5.00;;
40284;SDS011;25997;50.214;19.354;2023-10-31T06:33:29;7.85;;;3.78;;
40284;SDS011;25997;50.214;19.354;2023-10-31T06:36:31;7.57;;;3.20;;
40284;SDS011;25997;50.214;19.354;2023-10-31T06:39:34;8.32;;;3.00;;
40284;SDS011;25997;50.214;19.354;2023-10-31T06:42:38;5.35;;;2.47;;
40284;SDS011;25997;50.214;19.354;2023-10-31T06:45:40;9.40;;;4.15;;
40284;SDS011;25997;50.214;19.354;2023-10-31T06:48:42;5.05;;;3.13;;
40284;SDS011;25997;50.214;19.354;2023-10-31T06:51:45;5.68;;;2.33;;
40284;SDS011;25997;50.214;19.354;2023-10-31T06:54:47;3.67;;;2.38;;
40284;SDS011;25997;50.214;19.354;2023-10-31T06:57:51;4.60;;;2.40;;
40284;SDS011;25997;50.214;19.354;2023-10-31T07:00:54;7.88;;;2.97;;
40284;SDS011;25997;50.214;19.354;2023-10-31T07:03:58;6.82;;;2.67;;
40284;SDS011;25997;50.214;19.354;2023-10-31T07:07:01;4.00;;;2.95;;
40284;SDS011;25997;50.214;19.354;2023-10-31T07:10:03;6.15;;;3.42;;
40284;SDS011;25997;50.214;19.354;2023-10-31T07:13:08;7.47;;;2.90;;
40284;SDS011;25997;50.214;19.354;2023-10-31T07:16:11;3.90;;;2.90;;
40284;SDS011;25997;50.214;19.354;2023-10-31T07:19:13;8.48;;;3.42;;
40284;SDS011;25997;50.214;19.354;2023-10-31T07:22:16;6.75;;;2.78;;
40284;SDS011;25997;50.214;19.354;2023-10-31T07:25:18;7.15;;;3.38;;
40284;SDS011;25997;50.214;19.354;2023-10-31T07:28:22;6.10;;;3.70;;
40284;SDS011;25997;50.214;19.354;2023-10-31T07:31:25;9.55;;;3.65;;
40284;SDS011;25997;50.214;19.354;2023-10-31T07:34:28;4.45;;;2.72;;
40284;SDS011;25997;50.214;19.354;2023-10-31T07:37:31;6.80;;;3.33;;
40284;SDS011;25997;50.214;19.354;2023-10-31T07:40:33;7.43;;;3.42;;
40284;SDS011;25997;50.214;19.354;2023-10-31T07:43:37;5.47;;;3.17;;
40284;SDS011;25997;50.214;19.354;2023-10-31T07:46:40;12.85;;;3.28;;
40284;SDS011;25997;50.214;19.354;2023-10-31T07:49:42;6.40;;;3.08;;
40284;SDS011;25997;50.214;19.354;2023-10-31T07:52:44;7.93;;;2.90;;
40284;SDS011;25997;50.214;19.354;2023-10-31T07:55:48;7.57;;;3.15;;
40284;SDS011;25997;50.214;19.354;2023-10-31T07:58:52;6.22;;;3.03;;
40284;SDS011;25997;50.214;19.354;2023-10-31T08:01:55;5.97;;;2.70;;
40284;SDS011;25997;50.214;19.354;2023-10-31T08:04:57;4.95;;;3.10;;
40284;SDS011;25997;50.214;19.354;2023-10-31T08:08:00;5.03;;;2.47;;
40284;SDS011;25997;50.214;19.354;2023-10-31T08:11:03;5.97;;;2.85;;
40284;SDS011;25997;50.214;19.354;2023-10-31T08:14:07;9.15;;;4.57;;
40284;SDS011;25997;50.214;19.354;2023-10-31T08:17:09;4.72;;;3.00;;
40284;SDS011;25997;50.214;19.354;2023-10-31T08:20:12;8.23;;;4.40;;
40284;SDS011;25997;50.214;19.354;2023-10-31T08:23:15;8.55;;;4.30;;
40284;SDS011;25997;50.214;19.354;2023-10-31T08:26:17;4.20;;;2.80;;
40284;SDS011;25997;50.214;19.354;2023-10-31T08:29:21;6.80;;;3.17;;
40284;SDS011;25997;50.214;19.354;2023-10-31T08:32:23;5.40;;;2.97;;
40284;SDS011;25997;50.214;19.354;2023-10-31T08:35:26;6.40;;;3.72;;
40284;SDS011;25997;50.214;19.354;2023-10-31T08:38:28;6.30;;;3.40;;
40284;SDS011;25997;50.214;19.354;2023-10-31T08:41:31;6.85;;;3.55;;
40284;SDS011;25997;50.214;19.354;2023-10-31T08:44:35;4.75;;;3.17;;
40284;SDS011;25997;50.214;19.354;2023-10-31T08:47:38;4.88;;;3.60;;
40284;SDS011;25997;50.214;19.354;2023-10-31T08:50:40;5.45;;;3.22;;
40284;SDS011;25997;50.214;19.354;2023-10-31T08:53:42;6.15;;;3.83;;
40284;SDS011;25997;50.214;19.354;2023-10-31T08:56:45;8.45;;;4.28;;
40284;SDS011;25997;50.214;19.354;2023-10-31T08:59:49;7.68;;;3.90;;
40284;SDS011;25997;50.214;19.354;2023-10-31T09:02:51;9.95;;;4.97;;
40284;SDS011;25997;50.214;19.354;2023-10-31T09:05:54;5.47;;;3.60;;
40284;SDS011;25997;50.214;19.354;2023-10-31T09:08:57;7.30;;;5.20;;
40284;SDS011;25997;50.214;19.354;2023-10-31T09:11:59;13.02;;;6.10;;
40284;SDS011;25997;50.214;19.354;2023-10-31T09:15:04;8.20;;;4.10;;
40284;SDS011;25997;50.214;19.354;2023-10-31T09:18:07;9.95;;;6.47;;
40284;SDS011;25997;50.214;19.354;2023-10-31T09:21:09;11.77;;;5.47;;
40284;SDS011;25997;50.214;19.354;2023-10-31T09:24:11;8.10;;;4.45;;
40284;SDS011;25997;50.214;19.354;2023-10-31T09:27:14;8.43;;;4.50;;
40284;SDS011;25997;50.214;19.354;2023-10-31T09:30:18;14.82;;;7.30;;
40284;SDS011;25997;50.214;19.354;2023-10-31T09:33:20;12.60;;;7.60;;
40284;SDS011;25997;50.214;19.354;2023-10-31T09:36:23;12.68;;;7.20;;
40284;SDS011;25997;50.214;19.354;2023-10-31T09:39:25;11.80;;;6.88;;
40284;SDS011;25997;50.214;19.354;2023-10-31T09:42:28;8.80;;;5.70;;
40284;SDS011;25997;50.214;19.354;2023-10-31T09:45:32;8.20;;;4.72;;
40284;SDS011;25997;50.214;19.354;2023-10-31T09:48:34;11.77;;;5.15;;
40284;SDS011;25997;50.214;19.354;2023-10-31T09:51:37;8.98;;;5.90;;
40284;SDS011;25997;50.214;19.354;2023-10-31T09:54:40;10.18;;;9.27;;
40284;SDS011;25997;50.214;19.354;2023-10-31T09:57:43;7.47;;;5.68;;
40284;SDS011;25997;50.214;19.354;2023-10-31T10:00:47;6.13;;;5.32;;
40284;SDS011;25997;50.214;19.354;2023-10-31T10:03:50;8.32;;;5.40;;
40284;SDS011;25997;50.214;19.354;2023-10-31T10:06:58;8.63;;;5.65;;
40284;SDS011;25997;50.214;19.354;2023-10-31T10:10:02;10.10;;;5.70;;
40284;SDS011;25997;50.214;19.354;2023-10-31T10:13:04;12.80;;;8.55;;
40284;SDS011;25997;50.214;19.354;2023-10-31T10:16:08;5.40;;;4.43;;
40284;SDS011;25997;50.214;19.354;2023-10-31T10:19:15;6.10;;;4.50;;
40284;SDS011;25997;50.214;19.354;2023-10-31T10:22:19;6.50;;;4.05;;
40284;SDS011;25997;50.214;19.354;2023-10-31T10:25:22;7.88;;;4.32;;
40284;SDS011;25997;50.214;19.354;2023-10-31T10:28:25;5.07;;;3.58;;
40284;SDS011;25997;50.214;19.354;2023-10-31T10:31:31;5.45;;;3.42;;
40284;SDS011;25997;50.214;19.354;2023-10-31T10:34:33;6.28;;;4.13;;
40284;SDS011;25997;50.214;19.354;2023-10-31T10:37:37;5.43;;;3.55;;
40284;SDS011;25997;50.214;19.354;2023-10-31T10:40:40;5.78;;;3.60;;
40284;SDS011;25997;50.214;19.354;2023-10-31T10:43:44;5.40;;;3.90;;
40284;SDS011;25997;50.214;19.354;2023-10-31T10:46:54;4.85;;;3.25;;
40284;SDS011;25997;50.214;19.354;2023-10-31T10:49:58;6.63;;;3.00;;
40284;SDS011;25997;50.214;19.354;2023-10-31T10:53:05;5.13;;;3.08;;
40284;SDS011;25997;50.214;19.354;2023-10-31T10:56:13;5.53;;;4.00;;
40284;SDS011;25997;50.214;19.354;2023-10-31T10:59:26;5.32;;;2.70;;
40284;SDS011;25997;50.214;19.354;2023-10-31T11:02:38;4.20;;;2.70;;
40284;SDS011;25997;50.214;19.354;2023-10-31T11:05:43;4.28;;;2.83;;
40284;SDS011;25997;50.214;19.354;2023-10-31T11:08:46;3.60;;;2.60;;
40284;SDS011;25997;50.214;19.354;2023-10-31T11:11:50;4.53;;;3.10;;
40284;SDS011;25997;50.214;19.354;2023-10-31T11:14:52;4.13;;;2.90;;
40284;SDS011;25997;50.214;19.354;2023-10-31T11:17:57;3.75;;;2.63;;
40284;SDS011;25997;50.214;19.354;2023-10-31T11:21:00;5.20;;;2.88;;
40284;SDS011;25997;50.214;19.354;2023-10-31T11:24:03;8.20;;;5.88;;
40284;SDS011;25997;50.214;19.354;2023-10-31T11:27:06;3.92;;;2.92;;
40284;SDS011;25997;50.214;19.354;2023-10-31T11:30:19;5.78;;;2.45;;
40284;SDS011;25997;50.214;19.354;2023-10-31T11:33:24;7.95;;;2.65;;
40284;SDS011;25997;50.214;19.354;2023-10-31T11:36:27;3.42;;;2.58;;
40284;SDS011;25997;50.214;19.354;2023-10-31T11:39:33;8.63;;;3.80;;
40284;SDS011;25997;50.214;19.354;2023-10-31T11:42:36;3.78;;;2.50;;
40284;SDS011;25997;50.214;19.354;2023-10-31T11:45:40;3.28;;;1.98;;
40284;SDS011;25997;50.214;19.354;2023-10-31T11:48:46;3.88;;;2.33;;
40284;SDS011;25997;50.214;19.354;2023-10-31T11:51:50;5.07;;;2.70;;
40284;SDS011;25997;50.214;19.354;2023-10-31T11:54:53;2.55;;;1.50;;
40284;SDS011;25997;50.214;19.354;2023-10-31T11:57:56;5.90;;;2.05;;
40284;SDS011;25997;50.214;19.354;2023-10-31T12:01:00;2.83;;;1.50;;
40284;SDS011;25997;50.214;19.354;2023-10-31T12:04:06;2.95;;;1.80;;
40284;SDS011;25997;50.214;19.354;2023-10-31T12:07:08;3.47;;;2.00;;
40284;SDS011;25997;50.214;19.354;2023-10-31T12:10:11;3.58;;;2.22;;
40284;SDS011;25997;50.214;19.354;2023-10-31T12:13:14;3.03;;;1.90;;
40284;SDS011;25997;50.214;19.354;2023-10-31T12:16:16;2.95;;;2.42;;
40284;SDS011;25997;50.214;19.354;2023-10-31T12:19:21;4.70;;;2.30;;
40284;SDS011;25997;50.214;19.354;2023-10-31T12:22:24;3.33;;;2.20;;
40284;SDS011;25997;50.214;19.354;2023-10-31T12:25:26;3.65;;;2.95;;
40284;SDS011;25997;50.214;19.354;2023-10-31T12:28:29;3.38;;;2.22;;
40284;SDS011;25997;50.214;19.354;2023-10-31T12:31:31;4.30;;;2.63;;
40284;SDS011;25997;50.214;19.354;2023-10-31T12:34:35;7.30;;;2.83;;
40284;SDS011;25997;50.214;19.354;2023-10-31T12:37:38;5.65;;;3.00;;
40284;SDS011;25997;50.214;19.354;2023-10-31T12:40:41;6.25;;;4.10;;
40284;SDS011;25997;50.214;19.354;2023-10-31T12:43:46;6.45;;;3.10;;
40284;SDS011;25997;50.214;19.354;2023-10-31T12:46:48;4.72;;;2.28;;
40284;SDS011;25997;50.214;19.354;2023-10-31T12:50:07;6.20;;;2.63;;
40284;SDS011;25997;50.214;19.354;2023-10-31T12:53:10;8.50;;;3.28;;
40284;SDS011;25997;50.214;19.354;2023-10-31T12:56:34;4.13;;;2.40;;
40284;SDS011;25997;50.214;19.354;2023-10-31T12:59:39;3.75;;;2.00;;
40284;SDS011;25997;50.214;19.354;2023-10-31T13:02:42;2.78;;;1.98;;
40284;SDS011;25997;50.214;19.354;2023-10-31T13:05:46;2.85;;;1.75;;
40284;SDS011;25997;50.214;19.354;2023-10-31T13:08:48;5.60;;;2.83;;
40284;SDS011;25997;50.214;19.354;2023-10-31T13:11:51;4.85;;;4.15;;
40284;SDS011;25997;50.214;19.354;2023-10-31T13:14:53;4.63;;;2.83;;
40284;SDS011;25997;50.214;19.354;2023-10-31T13:17:55;6.70;;;4.78;;
40284;SDS011;25997;50.214;19.354;2023-10-31T13:21:00;3.72;;;1.80;;
40284;SDS011;25997;50.214;19.354;2023-10-31T13:24:02;4.72;;;3.10;;
40284;SDS011;25997;50.214;19.354;2023-10-31T13:27:05;5.20;;;2.53;;
40284;SDS011;25997;50.214;19.354;2023-10-31T13:30:09;6.50;;;2.67;;
40284;SDS011;25997;50.214;19.354;2023-10-31T13:33:14;2.72;;;1.77;;
40284;SDS011;25997;50.214;19.354;2023-10-31T13:36:18;3.67;;;2.08;;
40284;SDS011;25997;50.214;19.354;2023-10-31T13:39:21;4.05;;;2.22;;
40284;SDS011;25997;50.214;19.354;2023-10-31T13:42:23;2.42;;;1.90;;
40284;SDS011;25997;50.214;19.354;2023-10-31T13:45:27;4.28;;;2.08;;
40284;SDS011;25997;50.214;19.354;2023-10-31T13:48:29;4.45;;;2.30;;
40284;SDS011;25997;50.214;19.354;2023-10-31T13:51:33;3.60;;;2.00;;
40284;SDS011;25997;50.214;19.354;2023-10-31T13:54:36;4.47;;;2.67;;
40284;SDS011;25997;50.214;19.354;2023-10-31T13:57:39;7.28;;;3.70;;
40284;SDS011;25997;50.214;19.354;2023-10-31T14:00:43;6.63;;;3.83;;
40284;SDS011;25997;50.214;19.354;2023-10-31T14:03:46;10.15;;;4.38;;
40284;SDS011;25997;50.214;19.354;2023-10-31T14:06:50;4.25;;;2.20;;
40284;SDS011;25997;50.214;19.354;2023-10-31T14:09:53;48.38;;;34.85;;
40284;SDS011;25997;50.214;19.354;2023-10-31T14:12:57;42.40;;;32.50;;
40284;SDS011;25997;50.214;19.354;2023-10-31T14:16:00;10.15;;;8.82;;
40284;SDS011;25997;50.214;19.354;2023-10-31T14:19:02;6.45;;;4.53;;
40284;SDS011;25997;50.214;19.354;2023-10-31T14:22:08;3.97;;;3.00;;
40284;SDS011;25997;50.214;19.354;2023-10-31T14:25:11;7.93;;;3.60;;
40284;SDS011;25997;50.214;19.354;2023-10-31T14:28:13;6.88;;;4.35;;
40284;SDS011;25997;50.214;19.354;2023-10-31T14:31:16;6.07;;;4.72;;
40284;SDS011;25997;50.214;19.354;2023-10-31T14:34:18;7.00;;;4.45;;
40284;SDS011;25997;50.214;19.354;2023-10-31T14:37:23;5.88;;;3.55;;
40284;SDS011;25997;50.214;19.354;2023-10-31T14:40:25;5.43;;;3.47;;
40284;SDS011;25997;50.214;19.354;2023-10-31T14:43:28;6.70;;;3.70;;
40284;SDS011;25997;50.214;19.354;2023-10-31T14:46:30;5.35;;;3.60;;
40284;SDS011;25997;50.214;19.354;2023-10-31T14:49:33;5.63;;;4.53;;
40284;SDS011;25997;50.214;19.354;2023-10-31T14:52:37;6.25;;;3.85;;
40284;SDS011;25997;50.214;19.354;2023-10-31T14:55:41;5.80;;;3.80;;
40284;SDS011;25997;50.214;19.354;2023-10-31T14:58:43;5.78;;;4.20;;
40284;SDS011;25997;50.214;19.354;2023-10-31T15:01:46;6.95;;;4.55;;
40284;SDS011;25997;50.214;19.354;2023-10-31T15:04:48;5.72;;;3.80;;
40284;SDS011;25997;50.214;19.354;2023-10-31T15:07:52;6.05;;;5.45;;
40284;SDS011;25997;50.214;19.354;2023-10-31T15:10:55;7.15;;;5.70;;
40284;SDS011;25997;50.214;19.354;2023-10-31T15:13:57;7.85;;;5.60;;
40284;SDS011;25997;50.214;19.354;2023-10-31T15:16:59;7.43;;;5.43;;
40284;SDS011;25997;50.214;19.354;2023-10-31T15:20:03;7.65;;;5.32;;
40284;SDS011;25997;50.214;19.354;2023-10-31T15:23:08;6.60;;;5.72;;
40284;SDS011;25997;50.214;19.354;2023-10-31T15:26:10;9.45;;;5.43;;
40284;SDS011;25997;50.214;19.354;2023-10-31T15:29:13;5.80;;;4.75;;
40284;SDS011;25997;50.214;19.354;2023-10-31T15:32:16;9.50;;;5.85;;
40284;SDS011;25997;50.214;19.354;2023-10-31T15:35:18;7.78;;;4.88;;
40284;SDS011;25997;50.214;19.354;2023-10-31T15:38:22;6.65;;;4.88;;
40284;SDS011;25997;50.214;19.354;2023-10-31T15:41:24;8.52;;;4.28;;
40284;SDS011;25997;50.214;19.354;2023-10-31T15:44:27;12.60;;;11.32;;
40284;SDS011;25997;50.214;19.354;2023-10-31T15:47:29;8.93;;;7.97;;
40284;SDS011;25997;50.214;19.354;2023-10-31T15:50:32;11.45;;;8.90;;
40284;SDS011;25997;50.214;19.354;2023-10-31T15:53:36;13.43;;;9.35;;
40284;SDS011;25997;50.214;19.354;2023-10-31T15:56:38;15.70;;;10.10;;
40284;SDS011;25997;50.214;19.354;2023-10-31T15:59:41;7.43;;;6.35;;
40284;SDS011;25997;50.214;19.354;2023-10-31T16:02:43;7.05;;;5.90;;
40284;SDS011;25997;50.214;19.354;2023-10-31T16:05:45;8.50;;;6.45;;
40284;SDS011;25997;50.214;19.354;2023-10-31T16:08:49;11.25;;;7.07;;
40284;SDS011;25997;50.214;19.354;2023-10-31T16:11:52;8.90;;;7.22;;
40284;SDS011;25997;50.214;19.354;2023-10-31T16:14:54;9.80;;;7.03;;
40284;SDS011;25997;50.214;19.354;2023-10-31T16:17:57;11.18;;;7.43;;
40284;SDS011;25997;50.214;19.354;2023-10-31T16:20:59;11.25;;;8.68;;
40284;SDS011;25997;50.214;19.354;2023-10-31T16:24:03;9.38;;;7.88;;
40284;SDS011;25997;50.214;19.354;2023-10-31T16:27:06;13.80;;;9.32;;
40284;SDS011;25997;50.214;19.354;2023-10-31T16:30:09;17.08;;;11.80;;
40284;SDS011;25997;50.214;19.354;2023-10-31T16:33:12;46.90;;;40.22;;
40284;SDS011;25997;50.214;19.354;2023-10-31T16:36:16;56.80;;;48.42;;
40284;SDS011;25997;50.214;19.354;2023-10-31T16:39:20;65.13;;;57.88;;
40284;SDS011;25997;50.214;19.354;2023-10-31T16:42:22;31.90;;;28.60;;
40284;SDS011;25997;50.214;19.354;2023-10-31T16:45:28;22.05;;;15.20;;
40284;SDS011;25997;50.214;19.354;2023-10-31T16:48:30;17.77;;;13.55;;
40284;SDS011;25997;50.214;19.354;2023-10-31T16:51:32;17.95;;;14.15;;
40284;SDS011;25997;50.214;19.354;2023-10-31T16:54:36;13.02;;;11.25;;
40284;SDS011;25997;50.214;19.354;2023-10-31T16:57:38;16.08;;;10.95;;
40284;SDS011;25997;50.214;19.354;2023-10-31T17:00:41;53.13;;;47.90;;
40284;SDS011;25997;50.214;19.354;2023-10-31T17:03:44;15.95;;;13.32;;
40284;SDS011;25997;50.214;19.354;2023-10-31T17:06:46;16.90;;;15.10;;
40284;SDS011;25997;50.214;19.354;2023-10-31T17:09:50;14.18;;;11.30;;
40284;SDS011;25997;50.214;19.354;2023-10-31T17:12:52;14.98;;;11.45;;
40284;SDS011;25997;50.214;19.354;2023-10-31T17:15:55;17.90;;;12.55;;
40284;SDS011;25997;50.214;19.354;2023-10-31T17:18:57;13.38;;;10.57;;
40284;SDS011;25997;50.214;19.354;2023-10-31T17:22:00;13.23;;;10.38;;
40284;SDS011;25997;50.214;19.354;2023-10-31T17:25:04;14.65;;;12.40;;
40284;SDS011;25997;50.214;19.354;2023-10-31T17:28:06;14.23;;;11.98;;
40284;SDS011;25997;50.214;19.354;2023-10-31T17:31:09;16.17;;;13.15;;
40284;SDS011;25997;50.214;19.354;2023-10-31T17:34:11;15.18;;;12.93;;
40284;SDS011;25997;50.214;19.354;2023-10-31T17:37:14;14.23;;;11.45;;
40284;SDS011;25997;50.214;19.354;2023-10-31T17:40:18;13.63;;;12.15;;
40284;SDS011;25997;50.214;19.354;2023-10-31T17:43:22;13.52;;;10.32;;
40284;SDS011;25997;50.214;19.354;2023-10-31T17:46:25;24.33;;;15.82;;
40284;SDS011;25997;50.214;19.354;2023-10-31T17:49:28;15.55;;;11.98;;
40284;SDS011;25997;50.214;19.354;2023-10-31T17:52:30;14.05;;;10.93;;
40284;SDS011;25997;50.214;19.354;2023-10-31T17:55:34;17.08;;;13.82;;
40284;SDS011;25997;50.214;19.354;2023-10-31T17:58:37;11.98;;;9.48;;
40284;SDS011;25997;50.214;19.354;2023-10-31T18:01:40;18.45;;;15.32;;